createdAt,value
2019-02-07T00:00:31.011Z,20.91
2019-02-07T00:01:31.018Z,20.91
2019-02-07T00:02:31.025Z,20.72
2019-02-07T00:03:31.029Z,20.62
2019-02-07T00:04:31.034Z,20.62
2019-02-07T00:05:31.041Z,20.91
2019-02-07T00:06:31.046Z,20.72
2019-02-07T00:07:31.051Z,20.81
2019-02-07T00:08:31.057Z,21.10
2019-02-07T00:09:31.062Z,20.91
2019-02-07T00:10:31.123Z,21.10
2019-02-07T00:11:31.074Z,20.81
2019-02-07T00:12:31.080Z,20.72
2019-02-07T00:13:31.085Z,20.91
2019-02-07T00:14:39.451Z,20.91
2019-02-07T00:15:31.097Z,20.81
2019-02-07T00:16:31.102Z,20.91
2019-02-07T00:17:31.119Z,20.72
2019-02-07T00:18:31.116Z,20.91
2019-02-07T00:19:31.119Z,20.91
2019-02-07T00:20:31.152Z,20.72
2019-02-07T00:21:31.132Z,20.72
2019-02-07T00:22:31.137Z,21.10
2019-02-07T00:23:31.141Z,20.72
2019-02-07T00:24:42.270Z,20.91
2019-02-07T00:25:31.152Z,20.62
2019-02-07T00:26:31.160Z,20.91
2019-02-07T00:27:31.164Z,20.62
2019-02-07T00:28:31.174Z,20.62
2019-02-07T00:29:31.176Z,20.62
2019-02-07T00:30:31.181Z,20.62
2019-02-07T00:31:31.189Z,20.81
2019-02-07T00:32:31.193Z,20.91
2019-02-07T00:33:31.200Z,20.72
2019-02-07T00:34:31.205Z,20.72
2019-02-07T00:35:31.209Z,20.81
2019-02-07T00:36:31.216Z,20.43
2019-02-07T00:37:31.222Z,20.81
2019-02-07T00:38:31.233Z,21.01
2019-02-07T00:39:31.232Z,21.10
2019-02-07T00:40:31.238Z,21.01
2019-02-07T00:41:31.244Z,21.20
2019-02-07T00:42:31.249Z,20.81
2019-02-07T00:43:31.255Z,21.01
2019-02-07T00:44:31.264Z,20.72
2019-02-07T00:45:31.267Z,20.81
2019-02-07T00:46:31.272Z,21.20
2019-02-07T00:47:31.276Z,20.62
2019-02-07T00:48:31.293Z,21.01
2019-02-07T00:49:31.290Z,21.20
2019-02-07T00:50:31.314Z,21.01
2019-02-07T00:51:31.301Z,21.01
2019-02-07T00:52:31.305Z,21.30
2019-02-07T00:53:31.312Z,21.10
2019-02-07T00:54:31.319Z,20.81
2019-02-07T00:55:31.322Z,21.10
2019-02-07T00:56:31.332Z,21.30
2019-02-07T00:57:31.336Z,21.30
2019-02-07T00:58:31.341Z,21.30
2019-02-07T00:59:31.346Z,21.48
2019-02-07T01:00:31.351Z,21.68
2019-02-07T01:01:31.358Z,21.68
2019-02-07T01:02:31.363Z,21.68
2019-02-07T01:03:31.370Z,20.81
2019-02-07T01:04:31.373Z,21.20
2019-02-07T01:05:31.380Z,20.91
2019-02-07T01:06:31.386Z,21.30
2019-02-07T01:07:31.393Z,21.01
2019-02-07T01:08:31.441Z,21.68
2019-02-07T01:09:31.403Z,21.30
2019-02-07T01:10:31.417Z,21.68
2019-02-07T01:11:31.414Z,21.68
2019-02-07T01:12:31.419Z,21.20
2019-02-07T01:13:31.425Z,21.78
2019-02-07T01:14:31.438Z,21.39
2019-02-07T01:15:31.437Z,21.48
2019-02-07T01:16:31.442Z,21.39
2019-02-07T01:17:31.448Z,21.10
2019-02-07T01:18:31.454Z,20.72
2019-02-07T01:19:31.460Z,20.91
2019-02-07T01:20:31.468Z,21.10
2019-02-07T01:21:31.469Z,21.01
2019-02-07T01:22:31.476Z,21.01
2019-02-07T01:23:31.482Z,20.91
2019-02-07T01:24:31.495Z,21.48
2019-02-07T01:25:31.492Z,21.01
2019-02-07T01:26:31.498Z,21.39
2019-02-07T01:27:31.504Z,20.91
2019-02-07T01:28:31.509Z,21.20
2019-02-07T01:29:31.514Z,21.10
2019-02-07T01:30:31.523Z,21.20
2019-02-07T01:31:31.528Z,20.81
2019-02-07T01:32:31.532Z,20.81
2019-02-07T01:33:31.539Z,20.81
2019-02-07T01:34:31.544Z,21.10
2019-02-07T01:35:31.648Z,20.91
2019-02-07T01:36:31.554Z,20.72
2019-02-07T01:37:31.565Z,20.91
2019-02-07T01:38:31.566Z,20.80
2019-02-07T01:39:31.571Z,21.01
2019-02-07T01:40:31.577Z,20.81
2019-02-07T01:41:31.582Z,20.62
2019-02-07T01:42:31.588Z,20.62
2019-02-07T01:43:31.595Z,20.91
2019-02-07T01:44:31.600Z,21.01
2019-02-07T01:45:31.614Z,20.72
2019-02-07T01:46:31.610Z,20.62
2019-02-07T01:47:31.616Z,20.91
2019-02-07T01:48:31.622Z,21.01
2019-02-07T01:49:31.629Z,20.62
2019-02-07T01:50:31.634Z,20.81
2019-02-07T01:51:31.639Z,21.10
2019-02-07T01:52:31.644Z,20.53
2019-02-07T01:53:31.650Z,20.91
2019-02-07T01:54:31.655Z,20.81
2019-02-07T01:55:31.661Z,20.91
2019-02-07T01:56:31.667Z,20.72
2019-02-07T01:57:31.672Z,20.91
2019-02-07T01:58:31.679Z,20.72
2019-02-07T01:59:31.686Z,20.91
2019-02-07T02:00:31.688Z,20.91
2019-02-07T02:01:31.694Z,20.70
2019-02-07T02:02:31.701Z,20.72
2019-02-07T02:03:31.765Z,20.72
2019-02-07T02:04:31.712Z,20.91
2019-02-07T02:05:31.718Z,20.81
2019-02-07T02:06:31.725Z,21.01
2019-02-07T02:07:31.732Z,20.43
2019-02-07T02:08:31.740Z,20.81
2019-02-07T02:09:31.739Z,20.62
2019-02-07T02:10:31.747Z,20.81
2019-02-07T02:11:31.752Z,20.72
2019-02-07T02:12:31.757Z,20.91
2019-02-07T02:13:31.761Z,20.43
2019-02-07T02:14:31.772Z,20.81
2019-02-07T02:15:31.775Z,21.01
2019-02-07T02:16:31.782Z,20.62
2019-02-07T02:17:31.791Z,20.91
2019-02-07T02:18:31.790Z,20.81
2019-02-07T02:19:31.798Z,20.62
2019-02-07T02:20:31.803Z,20.62
2019-02-07T02:21:31.808Z,20.62
2019-02-07T02:22:31.812Z,20.53
2019-02-07T02:23:31.817Z,20.61
2019-02-07T02:24:31.823Z,20.51
2019-02-07T02:25:31.829Z,20.72
2019-02-07T02:26:31.837Z,20.43
2019-02-07T02:27:31.840Z,20.43
2019-02-07T02:28:31.847Z,20.53
2019-02-07T02:29:31.853Z,20.61
2019-02-07T02:30:31.858Z,20.72
2019-02-07T02:31:31.862Z,20.53
2019-02-07T02:32:31.869Z,20.81
2019-02-07T02:33:31.875Z,20.91
2019-02-07T02:34:31.886Z,20.61
2019-02-07T02:35:31.886Z,20.53
2019-02-07T02:36:31.891Z,20.91
2019-02-07T02:37:31.897Z,20.43
2019-02-07T02:38:31.903Z,20.72
2019-02-07T02:39:31.907Z,20.53
2019-02-07T02:40:31.913Z,20.81
2019-02-07T02:41:31.920Z,20.53
2019-02-07T02:42:31.927Z,20.70
2019-02-07T02:43:31.930Z,20.80
2019-02-07T02:44:31.937Z,20.51
2019-02-07T02:45:37.576Z,20.43
2019-02-07T02:46:31.946Z,20.90
2019-02-07T02:47:31.954Z,20.51
2019-02-07T02:48:31.960Z,20.32
2019-02-07T02:49:31.964Z,20.43
2019-02-07T02:50:31.972Z,20.53
2019-02-07T02:51:31.973Z,20.70
2019-02-07T02:52:31.981Z,20.72
2019-02-07T02:53:31.988Z,20.23
2019-02-07T02:54:31.994Z,20.43
2019-02-07T02:55:31.997Z,20.14
2019-02-07T02:56:32.009Z,20.33
2019-02-07T02:57:32.011Z,20.81
2019-02-07T02:58:32.015Z,20.43
2019-02-07T02:59:32.019Z,20.72
2019-02-07T03:00:32.032Z,20.91
2019-02-07T03:01:32.032Z,20.43
2019-02-07T03:02:32.036Z,20.80
2019-02-07T03:03:32.042Z,20.51
2019-02-07T03:04:32.046Z,20.72
2019-02-07T03:05:32.053Z,20.53
2019-02-07T03:06:32.060Z,20.42
2019-02-07T03:07:32.063Z,20.14
2019-02-07T03:08:32.070Z,20.33
2019-02-07T03:09:34.526Z,20.62
2019-02-07T03:10:32.082Z,20.33
2019-02-07T03:11:32.086Z,20.43
2019-02-07T03:12:32.094Z,20.51
2019-02-07T03:13:32.098Z,20.33
2019-02-07T03:14:32.104Z,20.43
2019-02-07T03:15:32.109Z,20.42
2019-02-07T03:16:32.115Z,20.32
2019-02-07T03:17:32.119Z,20.33
2019-02-07T03:18:32.126Z,20.33
2019-02-07T03:19:32.131Z,20.70
2019-02-07T03:20:32.137Z,20.53
2019-02-07T03:21:32.143Z,20.43
2019-02-07T03:22:32.150Z,20.23
2019-02-07T03:23:32.156Z,20.23
2019-02-07T03:24:32.159Z,20.51
2019-02-07T03:25:32.167Z,20.14
2019-02-07T03:26:32.171Z,20.62
2019-02-07T03:27:32.176Z,20.33
2019-02-07T03:28:32.182Z,20.33
2019-02-07T03:29:32.187Z,20.32
2019-02-07T03:30:32.193Z,19.95
2019-02-07T03:31:32.198Z,20.23
2019-02-07T03:32:32.473Z,20.04
2019-02-07T03:33:32.211Z,19.95
2019-02-07T03:34:32.226Z,19.95
2019-02-07T03:35:32.220Z,20.03
2019-02-07T03:36:32.227Z,20.23
2019-02-07T03:37:32.239Z,20.23
2019-02-07T03:38:32.238Z,20.03
2019-02-07T03:39:32.300Z,20.23
2019-02-07T03:40:32.252Z,20.23
2019-02-07T03:41:32.255Z,20.03
2019-02-07T03:42:32.278Z,20.13
2019-02-07T03:43:32.337Z,20.23
2019-02-07T03:44:32.271Z,20.14
2019-02-07T03:45:32.280Z,20.32
2019-02-07T03:46:32.289Z,20.14
2019-02-07T03:47:32.289Z,20.32
2019-02-07T03:48:32.294Z,20.13
2019-02-07T03:49:32.300Z,20.14
2019-02-07T03:50:32.305Z,20.14
2019-02-07T03:51:32.310Z,20.14
2019-02-07T03:52:32.316Z,20.04
2019-02-07T03:53:32.321Z,20.32
2019-02-07T03:54:32.327Z,20.14
2019-02-07T03:55:32.333Z,20.14
2019-02-07T03:56:32.549Z,20.13
2019-02-07T03:57:32.349Z,20.23
2019-02-07T03:58:32.349Z,20.14
2019-02-07T03:59:32.355Z,20.04
2019-02-07T04:00:32.360Z,20.23
2019-02-07T04:01:32.366Z,20.33
2019-02-07T04:02:32.370Z,20.23
2019-02-07T04:03:32.376Z,20.13
2019-02-07T04:04:32.382Z,20.03
2019-02-07T04:05:32.388Z,20.32
2019-02-07T04:06:32.394Z,20.32
2019-02-07T04:07:32.399Z,20.13
2019-02-07T04:08:32.404Z,20.32
2019-02-07T04:09:32.410Z,20.42
2019-02-07T04:10:32.416Z,20.23
2019-02-07T04:11:32.422Z,20.23
2019-02-07T04:12:32.426Z,20.23
2019-02-07T04:13:32.432Z,20.32
2019-02-07T04:14:32.439Z,20.23
2019-02-07T04:15:32.443Z,20.13
2019-02-07T04:16:32.448Z,20.13
2019-02-07T04:17:32.455Z,20.04
2019-02-07T04:18:32.461Z,20.23
2019-02-07T04:19:32.467Z,20.32
2019-02-07T04:20:32.472Z,20.23
2019-02-07T04:21:32.476Z,20.13
2019-02-07T04:22:32.507Z,20.23
2019-02-07T04:23:32.488Z,20.14
2019-02-07T04:24:32.494Z,20.33
2019-02-07T04:25:32.498Z,20.23
2019-02-07T04:26:32.505Z,20.13
2019-02-07T04:27:32.511Z,20.23
2019-02-07T04:28:32.516Z,20.32
2019-02-07T04:29:32.522Z,20.23
2019-02-07T04:30:32.534Z,20.13
2019-02-07T04:31:32.534Z,20.32
2019-02-07T04:32:32.546Z,20.70
2019-02-07T04:33:32.545Z,19.93
2019-02-07T04:34:32.550Z,20.13
2019-02-07T04:35:32.555Z,20.23
2019-02-07T04:36:32.561Z,20.32
2019-02-07T04:37:32.566Z,20.51
2019-02-07T04:38:32.572Z,20.42
2019-02-07T04:39:32.576Z,20.23
2019-02-07T04:40:32.585Z,20.23
2019-02-07T04:41:32.639Z,20.42
2019-02-07T04:42:32.594Z,20.14
2019-02-07T04:43:32.599Z,20.04
2019-02-07T04:44:32.603Z,20.13
2019-02-07T04:45:32.610Z,20.32
2019-02-07T04:46:32.616Z,20.13
2019-02-07T04:47:32.622Z,20.42
2019-02-07T04:48:32.626Z,20.23
2019-02-07T04:49:32.633Z,20.23
2019-02-07T04:50:32.640Z,20.23
2019-02-07T04:51:32.643Z,20.32
2019-02-07T04:52:32.656Z,20.23
2019-02-07T04:53:32.655Z,20.23
2019-02-07T04:54:32.660Z,20.70
2019-02-07T04:55:32.701Z,20.14
2019-02-07T04:56:32.671Z,20.14
2019-02-07T04:57:32.675Z,20.13
2019-02-07T04:58:32.683Z,20.81
2019-02-07T04:59:32.798Z,20.61
2019-02-07T05:00:32.697Z,20.53
2019-02-07T05:01:32.715Z,20.51
2019-02-07T05:02:32.705Z,20.81
2019-02-07T05:03:32.709Z,21.01
2019-02-07T05:04:32.715Z,20.51
2019-02-07T05:05:32.722Z,20.72
2019-02-07T05:06:32.727Z,20.70
2019-02-07T05:07:32.733Z,20.81
2019-02-07T05:08:32.739Z,20.81
2019-02-07T05:09:32.744Z,20.23
2019-02-07T05:10:32.747Z,20.03
2019-02-07T05:11:32.753Z,20.23
2019-02-07T05:12:32.760Z,20.33
2019-02-07T05:13:32.771Z,20.81
2019-02-07T05:14:32.776Z,20.33
2019-02-07T05:15:32.785Z,20.72
2019-02-07T05:16:39.801Z,20.53
2019-02-07T05:17:32.789Z,20.43
2019-02-07T05:18:32.792Z,20.91
2019-02-07T05:19:32.799Z,20.81
2019-02-07T05:20:32.804Z,20.91
2019-02-07T05:21:32.809Z,20.43
2019-02-07T05:22:32.817Z,20.72
2019-02-07T05:23:32.822Z,20.43
2019-02-07T05:24:32.828Z,20.53
2019-02-07T05:25:32.959Z,21.10
2019-02-07T05:26:32.838Z,20.62
2019-02-07T05:27:35.015Z,20.90
2019-02-07T05:28:32.849Z,21.01
2019-02-07T05:29:33.006Z,21.10
2019-02-07T05:30:32.861Z,20.72
2019-02-07T05:31:32.866Z,20.72
2019-02-07T05:32:32.869Z,20.62
2019-02-07T05:33:32.877Z,20.72
2019-02-07T05:34:32.882Z,20.62
2019-02-07T05:35:32.887Z,20.72
2019-02-07T05:36:32.900Z,20.72
2019-02-07T05:37:32.898Z,20.62
2019-02-07T05:38:32.905Z,20.72
2019-02-07T05:39:32.909Z,20.81
2019-02-07T05:40:32.917Z,20.91
2019-02-07T05:41:32.921Z,21.10
2019-02-07T05:42:32.927Z,20.91
2019-02-07T05:43:32.932Z,21.10
2019-02-07T05:44:32.939Z,21.20
2019-02-07T05:45:32.942Z,20.72
2019-02-07T05:46:32.948Z,20.91
2019-02-07T05:47:32.955Z,20.81
2019-02-07T05:48:32.960Z,20.72
2019-02-07T05:49:32.964Z,20.72
2019-02-07T05:50:32.971Z,20.62
2019-02-07T05:51:32.976Z,20.81
2019-02-07T05:52:32.982Z,20.72
2019-02-07T05:53:32.988Z,20.91
2019-02-07T05:54:32.995Z,20.91
2019-02-07T05:55:32.998Z,20.91
2019-02-07T05:56:33.004Z,20.81
2019-02-07T05:57:33.008Z,21.01
2019-02-07T05:58:33.083Z,20.91
2019-02-07T05:59:33.028Z,20.81
2019-02-07T06:00:33.027Z,21.01
2019-02-07T06:01:33.032Z,21.30
2019-02-07T06:02:33.037Z,21.01
2019-02-07T06:03:33.041Z,20.81
2019-02-07T06:04:33.049Z,20.91
2019-02-07T06:05:33.055Z,21.10
2019-02-07T06:06:33.061Z,20.91
2019-02-07T06:07:33.066Z,21.39
2019-02-07T06:08:33.071Z,21.10
2019-02-07T06:09:33.076Z,21.39
2019-02-07T06:10:33.085Z,21.20
2019-02-07T06:11:33.090Z,21.20
2019-02-07T06:12:33.096Z,21.30
2019-02-07T06:13:33.104Z,21.39
2019-02-07T06:14:33.104Z,21.58
2019-02-07T06:15:33.109Z,21.30
2019-02-07T06:16:33.116Z,21.10
2019-02-07T06:17:33.122Z,21.20
2019-02-07T06:18:33.128Z,21.30
2019-02-07T06:19:33.132Z,20.91
2019-02-07T06:20:33.137Z,21.10
2019-02-07T06:21:33.146Z,21.10
2019-02-07T06:22:33.148Z,21.30
2019-02-07T06:23:33.154Z,21.38
2019-02-07T06:24:33.160Z,21.48
2019-02-07T06:25:33.166Z,21.39
2019-02-07T06:26:33.186Z,20.91
2019-02-07T06:27:33.179Z,21.28
2019-02-07T06:28:33.181Z,21.39
2019-02-07T06:29:33.187Z,21.20
2019-02-07T06:30:33.193Z,21.10
2019-02-07T06:31:33.198Z,21.20
2019-02-07T06:32:33.203Z,21.01
2019-02-07T06:33:33.210Z,21.20
2019-02-07T06:34:33.216Z,21.30
2019-02-07T06:35:33.226Z,21.10
2019-02-07T06:36:33.226Z,21.30
2019-02-07T06:37:33.232Z,21.30
2019-02-07T06:38:33.239Z,21.30
2019-02-07T06:39:33.243Z,21.58
2019-02-07T06:40:33.249Z,21.48
2019-02-07T06:41:33.255Z,21.28
2019-02-07T06:42:33.262Z,21.20
2019-02-07T06:43:33.271Z,21.20
2019-02-07T06:44:33.271Z,21.20
2019-02-07T06:45:33.277Z,21.58
2019-02-07T06:46:33.348Z,21.67
2019-02-07T06:47:33.287Z,21.19
2019-02-07T06:48:33.294Z,21.19
2019-02-07T06:49:33.299Z,21.28
2019-02-07T06:50:33.306Z,21.38
2019-02-07T06:51:33.310Z,21.28
2019-02-07T06:52:33.316Z,21.48
2019-02-07T06:53:33.329Z,21.09
2019-02-07T06:54:33.327Z,21.28
2019-02-07T06:55:33.332Z,21.09
2019-02-07T06:56:33.336Z,21.00
2019-02-07T06:57:33.343Z,21.38
2019-02-07T06:58:33.355Z,21.19
2019-02-07T06:59:33.354Z,21.09
2019-02-07T07:00:33.360Z,21.38
2019-02-07T07:01:33.366Z,21.28
2019-02-07T07:02:33.371Z,21.38
2019-02-07T07:03:33.375Z,21.28
2019-02-07T07:04:33.382Z,21.38
2019-02-07T07:05:33.386Z,21.58
2019-02-07T07:06:33.393Z,21.19
2019-02-07T07:07:33.413Z,21.58
2019-02-07T07:08:33.404Z,21.38
2019-02-07T07:09:33.409Z,21.28
2019-02-07T07:10:33.414Z,21.67
2019-02-07T07:11:33.424Z,21.67
2019-02-07T07:12:33.426Z,22.05
2019-02-07T07:13:33.432Z,22.25
2019-02-07T07:14:33.439Z,22.53
2019-02-07T07:15:33.463Z,22.25
2019-02-07T07:16:33.446Z,22.44
2019-02-07T07:17:33.453Z,22.44
2019-02-07T07:18:33.459Z,22.34
2019-02-07T07:19:33.466Z,21.96
2019-02-07T07:20:33.471Z,21.48
2019-02-07T07:21:33.475Z,21.58
2019-02-07T07:22:33.482Z,21.48
2019-02-07T07:23:33.490Z,21.48
2019-02-07T07:24:33.491Z,21.38
2019-02-07T07:25:33.519Z,21.09
2019-02-07T07:26:33.503Z,21.09
2019-02-07T07:27:33.527Z,21.01
2019-02-07T07:28:33.514Z,21.09
2019-02-07T07:29:33.520Z,21.28
2019-02-07T07:30:33.525Z,21.09
2019-02-07T07:31:33.530Z,21.19
2019-02-07T07:32:33.536Z,21.28
2019-02-07T07:33:33.548Z,21.09
2019-02-07T07:34:33.548Z,21.01
2019-02-07T07:35:33.552Z,21.00
2019-02-07T07:36:33.558Z,21.09
2019-02-07T07:37:33.563Z,21.10
2019-02-07T07:38:33.571Z,21.09
2019-02-07T07:39:33.574Z,20.90
2019-02-07T07:40:33.580Z,20.81
2019-02-07T07:41:33.585Z,20.90
2019-02-07T07:42:33.592Z,20.72
2019-02-07T07:43:33.596Z,20.62
2019-02-07T07:44:33.602Z,21.10
2019-02-07T07:45:33.607Z,20.53
2019-02-07T07:46:33.614Z,20.81
2019-02-07T07:47:36.060Z,20.80
2019-02-07T07:48:33.623Z,20.91
2019-02-07T07:49:33.629Z,20.70
2019-02-07T07:50:33.634Z,20.81
2019-02-07T07:51:33.640Z,20.33
2019-02-07T07:52:33.646Z,20.90
2019-02-07T07:53:33.651Z,20.51
2019-02-07T07:54:33.656Z,20.43
2019-02-07T07:55:33.662Z,20.33
2019-02-07T07:56:33.667Z,20.23
2019-02-07T07:57:33.674Z,20.33
2019-02-07T07:58:33.680Z,20.32
2019-02-07T07:59:33.684Z,20.43
2019-02-07T08:00:33.691Z,20.43
2019-02-07T08:01:33.696Z,20.53
2019-02-07T08:02:33.704Z,20.33
2019-02-07T08:03:33.706Z,20.23
2019-02-07T08:04:33.712Z,20.23
2019-02-07T08:05:33.719Z,20.23
2019-02-07T08:06:33.722Z,19.95
2019-02-07T08:07:33.729Z,19.95
2019-02-07T08:08:33.734Z,19.85
2019-02-07T08:09:33.739Z,20.04
2019-02-07T08:10:33.746Z,19.95
2019-02-07T08:11:33.754Z,20.04
2019-02-07T08:12:33.755Z,20.33
2019-02-07T08:13:33.761Z,20.04
2019-02-07T08:14:33.775Z,20.42
2019-02-07T08:15:33.772Z,19.95
2019-02-07T08:16:33.779Z,19.93
2019-02-07T08:17:33.791Z,19.93
2019-02-07T08:18:33.795Z,19.75
2019-02-07T08:19:33.795Z,20.33
2019-02-07T08:20:33.803Z,20.14
2019-02-07T08:21:33.806Z,19.65
2019-02-07T08:22:33.812Z,19.75
2019-02-07T08:23:33.816Z,20.13
2019-02-07T08:24:33.822Z,19.85
2019-02-07T08:25:33.828Z,19.85
2019-02-07T08:26:33.834Z,20.23
2019-02-07T08:27:33.839Z,19.84
2019-02-07T08:28:33.844Z,19.84
2019-02-07T08:29:33.852Z,19.84
2019-02-07T08:30:36.465Z,20.32
2019-02-07T08:31:33.861Z,19.95
2019-02-07T08:32:33.867Z,19.85
2019-02-07T08:33:33.872Z,19.84
2019-02-07T08:34:33.879Z,19.95
2019-02-07T08:35:33.882Z,19.75
2019-02-07T08:36:33.891Z,19.85
2019-02-07T08:37:33.897Z,19.85
2019-02-07T08:38:33.899Z,20.03
2019-02-07T08:39:33.906Z,20.04
2019-02-07T08:40:33.911Z,20.14
2019-02-07T08:41:33.918Z,19.85
2019-02-07T08:42:33.920Z,20.04
2019-02-07T08:43:33.928Z,20.04
2019-02-07T08:44:33.932Z,19.85
2019-02-07T08:45:33.939Z,19.75
2019-02-07T08:46:33.944Z,20.04
2019-02-07T08:47:33.988Z,20.14
2019-02-07T08:48:33.955Z,19.84
2019-02-07T08:49:33.963Z,20.04
2019-02-07T08:50:34.000Z,19.95
2019-02-07T08:51:34.072Z,19.95
2019-02-07T08:52:33.976Z,19.95
2019-02-07T08:53:33.982Z,20.04
2019-02-07T08:54:33.992Z,19.95
2019-02-07T08:55:35.044Z,19.46
2019-02-07T08:56:33.997Z,19.56
2019-02-07T08:57:34.003Z,19.55
2019-02-07T08:58:34.010Z,19.18
2019-02-07T08:59:34.016Z,19.74
2019-02-07T09:00:34.019Z,19.85
2019-02-07T09:01:34.025Z,19.85
2019-02-07T09:02:34.032Z,19.75
2019-02-07T09:03:34.041Z,19.75
2019-02-07T09:04:34.042Z,19.85
2019-02-07T09:05:34.048Z,19.85
2019-02-07T09:06:34.053Z,19.75
2019-02-07T09:07:34.061Z,19.85
2019-02-07T09:08:34.064Z,19.75
2019-02-07T09:09:34.069Z,19.75
2019-02-07T09:10:34.073Z,19.75
2019-02-07T09:11:34.081Z,19.74
2019-02-07T09:12:34.085Z,19.56
2019-02-07T09:13:34.091Z,19.74
2019-02-07T09:14:34.104Z,19.46
2019-02-07T09:15:34.102Z,19.75
2019-02-07T09:16:34.107Z,19.65
2019-02-07T09:17:34.115Z,19.65
2019-02-07T09:18:34.119Z,19.65
2019-02-07T09:19:34.124Z,19.75
2019-02-07T09:20:34.129Z,19.65
2019-02-07T09:21:34.134Z,19.65
2019-02-07T09:22:34.141Z,19.55
2019-02-07T09:23:34.146Z,19.75
2019-02-07T09:24:34.152Z,19.65
2019-02-07T09:25:34.639Z,19.75
2019-02-07T09:26:34.164Z,19.75
2019-02-07T09:27:34.170Z,19.65
2019-02-07T09:28:34.173Z,19.37
2019-02-07T09:29:34.179Z,19.46
2019-02-07T09:30:34.185Z,19.46
2019-02-07T09:31:34.189Z,19.08
2019-02-07T09:32:34.194Z,19.08
2019-02-07T09:33:34.202Z,19.56
2019-02-07T09:34:34.207Z,19.37
2019-02-07T09:35:34.252Z,19.75
2019-02-07T09:36:34.219Z,19.55
2019-02-07T09:37:34.222Z,19.56
2019-02-07T09:38:34.229Z,19.17
2019-02-07T09:39:34.235Z,19.56
2019-02-07T09:40:34.241Z,19.46
2019-02-07T09:41:34.243Z,19.46
2019-02-07T09:42:34.250Z,19.18
2019-02-07T09:43:34.255Z,19.56
2019-02-07T09:44:34.260Z,19.56
2019-02-07T09:45:34.266Z,19.37
2019-02-07T09:46:34.273Z,19.46
2019-02-07T09:47:34.277Z,19.65
2019-02-07T09:48:34.286Z,19.08
2019-02-07T09:49:34.290Z,19.08
2019-02-07T09:50:34.296Z,19.08
2019-02-07T09:51:34.302Z,19.08
2019-02-07T09:52:34.304Z,19.46
2019-02-07T09:53:34.311Z,19.46
2019-02-07T09:54:34.317Z,19.36
2019-02-07T09:55:34.321Z,19.18
2019-02-07T09:56:34.326Z,19.08
2019-02-07T09:57:34.333Z,19.18
2019-02-07T09:58:34.340Z,19.18
2019-02-07T09:59:34.343Z,19.18
2019-02-07T10:00:34.349Z,18.98
2019-02-07T10:01:34.354Z,19.08
2019-02-07T10:02:34.360Z,19.18
2019-02-07T10:03:34.364Z,19.18
2019-02-07T10:04:34.371Z,19.27
2019-02-07T10:05:34.377Z,19.18
2019-02-07T10:06:34.383Z,19.27
2019-02-07T10:07:34.388Z,19.18
2019-02-07T10:08:34.393Z,19.37
2019-02-07T10:09:34.404Z,19.37
2019-02-07T10:10:34.406Z,19.18
2019-02-07T10:11:34.409Z,19.37
2019-02-07T10:12:34.413Z,19.18
2019-02-07T10:13:34.421Z,19.18
2019-02-07T10:14:34.431Z,19.18
2019-02-07T10:15:34.430Z,19.27
2019-02-07T10:16:34.538Z,19.18
2019-02-07T10:17:34.442Z,19.18
2019-02-07T10:18:34.449Z,19.27
2019-02-07T10:19:34.453Z,19.27
2019-02-07T10:20:37.215Z,19.18
2019-02-07T10:21:34.466Z,19.27
2019-02-07T10:22:34.471Z,19.27
2019-02-07T10:23:34.475Z,19.18
2019-02-07T10:24:34.484Z,19.27
2019-02-07T10:25:34.498Z,19.27
2019-02-07T10:26:34.493Z,19.18
2019-02-07T10:27:34.497Z,19.27
2019-02-07T10:28:34.544Z,19.27
2019-02-07T10:29:34.507Z,19.08
2019-02-07T10:30:34.514Z,19.37
2019-02-07T10:31:34.520Z,19.27
2019-02-07T10:32:34.529Z,19.27
2019-02-07T10:33:34.531Z,19.37
2019-02-07T10:34:34.535Z,19.26
2019-02-07T10:35:34.542Z,19.27
2019-02-07T10:36:34.546Z,19.18
2019-02-07T10:37:34.551Z,19.18
2019-02-07T10:38:34.557Z,19.18
2019-02-07T10:39:34.563Z,19.46
2019-02-07T10:40:34.569Z,19.27
2019-02-07T10:41:34.575Z,19.27
2019-02-07T10:42:34.581Z,19.37
2019-02-07T10:43:34.584Z,19.27
2019-02-07T10:44:34.590Z,19.27
2019-02-07T10:45:34.596Z,19.27
2019-02-07T10:46:34.603Z,19.37
2019-02-07T10:47:34.607Z,19.27
2019-02-07T10:48:44.261Z,19.18
2019-02-07T10:49:34.618Z,19.27
2019-02-07T10:50:34.624Z,19.46
2019-02-07T10:51:34.630Z,19.37
2019-02-07T10:52:34.634Z,19.37
2019-02-07T10:53:34.644Z,19.37
2019-02-07T10:54:34.646Z,19.37
2019-02-07T10:55:34.650Z,19.27
2019-02-07T10:56:34.659Z,19.37
2019-02-07T10:57:34.663Z,19.37
2019-02-07T10:58:34.669Z,19.18
2019-02-07T10:59:34.673Z,19.27
2019-02-07T11:00:34.678Z,19.18
2019-02-07T11:01:34.688Z,19.18
2019-02-07T11:02:34.694Z,19.18
2019-02-07T11:03:34.694Z,19.37
2019-02-07T11:04:34.713Z,19.46
2019-02-07T11:05:34.707Z,19.37
2019-02-07T11:06:34.715Z,19.18
2019-02-07T11:07:34.718Z,19.37
2019-02-07T11:08:34.723Z,19.37
2019-02-07T11:09:34.728Z,19.17
2019-02-07T11:10:34.734Z,19.37
2019-02-07T11:11:34.738Z,19.18
2019-02-07T11:12:34.747Z,19.27
2019-02-07T11:13:34.753Z,19.18
2019-02-07T11:14:34.756Z,19.27
2019-02-07T11:15:34.761Z,19.37
2019-02-07T11:16:34.769Z,19.27
2019-02-07T11:17:34.773Z,19.27
2019-02-07T11:18:34.777Z,19.18
2019-02-07T11:19:34.783Z,19.37
2019-02-07T11:20:34.789Z,19.27
2019-02-07T11:21:34.794Z,19.37
2019-02-07T11:22:34.800Z,19.17
2019-02-07T11:23:34.807Z,19.37
2019-02-07T11:24:34.809Z,19.37
2019-02-07T11:25:34.815Z,19.37
2019-02-07T11:26:34.821Z,19.27
2019-02-07T11:27:34.826Z,19.37
2019-02-07T11:28:34.833Z,19.37
2019-02-07T11:29:34.838Z,19.27
2019-02-07T11:30:34.846Z,19.26
2019-02-07T11:31:34.860Z,19.37
2019-02-07T11:32:34.854Z,19.18
2019-02-07T11:33:34.861Z,19.37
2019-02-07T11:34:34.867Z,19.27
2019-02-07T11:35:34.872Z,19.27
2019-02-07T11:36:34.876Z,19.37
2019-02-07T11:37:34.886Z,19.18
2019-02-07T11:38:34.890Z,19.36
2019-02-07T11:39:34.894Z,19.37
2019-02-07T11:40:34.901Z,19.27
2019-02-07T11:41:34.904Z,19.37
2019-02-07T11:42:34.913Z,19.27
2019-02-07T11:43:34.914Z,19.37
2019-02-07T11:44:34.921Z,19.37
2019-02-07T11:45:34.927Z,19.18
2019-02-07T11:46:37.558Z,19.27
2019-02-07T11:47:34.937Z,19.37
2019-02-07T11:48:34.945Z,19.37
2019-02-07T11:49:34.947Z,19.27
2019-02-07T11:50:34.958Z,19.37
2019-02-07T11:51:34.958Z,19.27
2019-02-07T11:52:34.969Z,19.18
2019-02-07T11:53:34.971Z,19.37
2019-02-07T11:54:34.976Z,19.18
2019-02-07T11:55:34.982Z,19.37
2019-02-07T11:56:34.987Z,19.27
2019-02-07T11:57:34.993Z,19.37
2019-02-07T11:58:34.999Z,19.37
2019-02-07T11:59:35.004Z,19.27
2019-02-07T12:00:35.010Z,19.37
2019-02-07T12:01:35.014Z,19.27
2019-02-07T12:02:35.022Z,19.37
2019-02-07T12:03:35.026Z,19.27
2019-02-07T12:04:35.032Z,19.27
2019-02-07T12:05:35.039Z,19.27
2019-02-07T12:06:35.045Z,19.18
2019-02-07T12:07:35.047Z,19.27
2019-02-07T12:08:35.066Z,19.18
2019-02-07T12:09:35.061Z,19.18
2019-02-07T12:10:35.065Z,19.18
2019-02-07T12:11:35.071Z,19.18
2019-02-07T12:12:35.075Z,19.18
2019-02-07T12:13:35.082Z,19.27
2019-02-07T12:14:35.088Z,19.27
2019-02-07T12:15:35.093Z,19.18
2019-02-07T12:16:35.100Z,19.37
2019-02-07T12:17:35.106Z,19.27
2019-02-07T12:18:35.109Z,19.18
2019-02-07T12:19:35.115Z,19.18
2019-02-07T12:20:35.120Z,19.27
2019-02-07T12:21:35.129Z,19.27
2019-02-07T12:22:37.404Z,19.18
2019-02-07T12:23:35.136Z,19.27
2019-02-07T12:24:35.142Z,19.18
2019-02-07T12:25:35.148Z,19.18
2019-02-07T12:26:35.156Z,19.18
2019-02-07T12:27:35.158Z,19.27
2019-02-07T12:28:36.117Z,19.26
2019-02-07T12:29:35.169Z,19.18
2019-02-07T12:30:35.176Z,19.27
2019-02-07T12:31:35.180Z,19.27
2019-02-07T12:32:35.187Z,19.27
2019-02-07T12:33:35.191Z,19.18
2019-02-07T12:34:35.266Z,19.18
2019-02-07T12:35:35.202Z,19.27
2019-02-07T12:36:35.208Z,19.27
2019-02-07T12:37:35.215Z,19.18
2019-02-07T12:38:35.221Z,19.27
2019-02-07T12:39:35.225Z,19.27
2019-02-07T12:40:35.232Z,19.27
2019-02-07T12:41:35.237Z,19.18
2019-02-07T12:42:35.243Z,19.27
2019-02-07T12:43:35.247Z,19.18
2019-02-07T12:44:35.255Z,19.37
2019-02-07T12:45:35.259Z,19.27
2019-02-07T12:46:35.266Z,19.18
2019-02-07T12:47:35.269Z,19.27
2019-02-07T12:48:35.277Z,19.27
2019-02-07T12:49:35.281Z,19.37
2019-02-07T12:50:35.287Z,19.27
2019-02-07T12:51:35.293Z,19.18
2019-02-07T12:52:35.299Z,19.18